Time;durP1;ratioP1;P1;durP2;ratioP2;P2;SDS_P1;SDS_P2;PMS_P1;PMS_P2;Temp;Humidity;BMP_temperature;BMP_pressure;BME280_temperature;BME280_humidity;BME280_pressure;Samples;Min_cycle;Max_cycle;Signal;HPM_P1;HPM_P2
2020/12/14 00:01:05;;;;;;;10.73;7.23;;;;;;;0.28;87.10;95168.78;5073320;28;20173;-78
2020/12/14 00:03:33;;;;;;;10.97;7.23;;;;;;;0.35;87.27;95153.03;5055996;28;20300;-79
2020/12/14 00:05:58;;;;;;;9.57;6.93;;;;;;;0.24;86.73;95164.75;5056557;28;20174;-78
2020/12/14 00:08:23;;;;;;;10.90;7.07;;;;;;;0.22;87.08;95163.22;5039910;28;20530;-78
2020/12/14 00:10:48;;;;;;;11.10;7.67;;;;;;;0.25;87.37;95157.91;5089802;28;20237;-78
2020/12/14 00:13:14;;;;;;;9.40;7.10;;;;;;;0.17;87.27;95158.38;5076288;28;20208;-78
2020/12/14 00:15:39;;;;;;;11.47;7.23;;;;;;;0.16;87.39;95151.63;5068145;28;20589;-78
2020/12/14 00:18:04;;;;;;;9.80;7.13;;;;;;;0.18;87.34;95162.59;5090123;28;20252;-78
2020/12/14 00:20:30;;;;;;;11.97;7.47;;;;;;;0.16;87.60;95161.84;5076102;28;20195;-78
2020/12/14 00:22:55;;;;;;;9.70;7.30;;;;;;;0.17;87.54;95167.78;5075890;28;20200;-78
2020/12/14 00:25:20;;;;;;;10.60;6.90;;;;;;;0.16;87.77;95179.72;5076308;28;20195;-77
2020/12/14 00:27:46;;;;;;;11.60;7.90;;;;;;;0.13;87.83;95181.66;5072038;28;20200;-78
2020/12/14 00:30:11;;;;;;;9.17;7.43;;;;;;;0.19;87.83;95181.28;5072476;28;20188;-78
2020/12/14 00:32:36;;;;;;;9.30;7.43;;;;;;;0.20;87.42;95183.75;5059063;28;20179;-78
2020/12/14 00:35:02;;;;;;;8.63;7.17;;;;;;;0.10;87.78;95182.66;5058343;28;20251;-78
2020/12/14 00:37:28;;;;;;;8.53;7.17;;;;;;;0.15;87.66;95193.41;5053262;28;20192;-78
2020/12/14 00:39:53;;;;;;;11.77;7.80;;;;;;;0.04;87.70;95192.44;5093842;28;20643;-78
2020/12/14 00:42:18;;;;;;;12.63;7.93;;;;;;;0.06;87.94;95200.81;5093693;28;20211;-78
2020/12/14 00:44:43;;;;;;;9.17;6.93;;;;;;;0.01;87.76;95207.94;5093984;28;20671;-78
2020/12/14 00:47:09;;;;;;;9.10;7.83;;;;;;;-0.05;88.13;95199.72;5073192;28;20184;-78
2020/12/14 00:49:34;;;;;;;13.23;8.23;;;;;;;0.02;88.00;95195.06;5075342;28;20185;-78
2020/12/14 00:52:04;;;;;;;9.73;7.80;;;;;;;0.00;87.86;95191.81;5075814;28;20226;-78
2020/12/14 00:54:29;;;;;;;11.50;7.43;;;;;;;-0.02;87.67;95184.22;5075662;28;20223;-78
2020/12/14 00:56:55;;;;;;;10.53;8.00;;;;;;;-0.07;87.91;95185.41;5075611;28;20682;-77
2020/12/14 00:59:20;;;;;;;9.90;7.10;;;;;;;0.05;87.75;95178.75;5063096;28;20216;-78
2020/12/14 01:01:50;;;;;;;14.03;7.80;;;;;;;0.03;87.95;95181.41;5055099;28;20213;-78
2020/12/14 01:04:15;;;;;;;9.80;8.37;;;;;;;0.09;87.76;95178.47;5055003;28;20201;-78
2020/12/14 01:06:40;;;;;;;12.03;8.40;;;;;;;0.10;87.78;95184.41;5073300;28;20191;-78
2020/12/14 01:09:06;;;;;;;12.33;8.67;;;;;;;0.10;87.80;95182.66;5072378;28;20665;-78
2020/12/14 01:11:31;;;;;;;10.83;7.87;;;;;;;0.11;87.97;95186.84;5074297;28;20229;-78
2020/12/14 01:13:56;;;;;;;9.33;7.67;;;;;;;0.14;87.78;95184.09;5074955;28;20287;-78
2020/12/14 01:16:22;;;;;;;11.60;7.67;;;;;;;0.22;87.28;95170.88;5075346;28;20256;-78
2020/12/14 01:18:48;;;;;;;11.20;8.47;;;;;;;0.19;87.56;95171.06;5093130;28;20209;-78
2020/12/14 01:21:13;;;;;;;12.87;8.30;;;;;;;0.17;87.47;95158.38;5056955;28;20188;-77
2020/12/14 01:23:38;;;;;;;11.47;7.97;;;;;;;0.13;87.63;95164.59;5091789;28;20212;-78
2020/12/14 01:26:03;;;;;;;12.47;8.43;;;;;;;0.08;87.46;95169.16;5074718;28;20176;-78
2020/12/14 01:28:29;;;;;;;11.70;8.53;;;;;;;0.11;87.72;95179.19;5092916;28;20640;-79
2020/12/14 01:30:54;;;;;;;10.60;7.93;;;;;;;0.05;87.71;95177.00;5088783;28;20715;-78
2020/12/14 01:33:20;;;;;;;11.83;7.73;;;;;;;0.05;87.60;95182.13;5076745;28;20222;-78
2020/12/14 01:35:45;;;;;;;14.03;8.80;;;;;;;-0.01;87.66;95182.47;5074489;28;20200;-77
2020/12/14 01:38:10;;;;;;;11.40;8.73;;;;;;;0.02;87.54;95187.41;5074804;28;20180;-78
2020/12/14 01:40:35;;;;;;;12.00;7.93;;;;;;;0.05;87.54;95194.88;5055639;28;20180;-78
2020/12/14 01:43:01;;;;;;;12.03;8.10;;;;;;;0.05;87.81;95194.88;5065164;28;20204;-78
2020/12/14 01:45:26;;;;;;;11.27;8.43;;;;;;;0.02;87.57;95189.97;5070926;28;20181;-78
2020/12/14 01:47:51;;;;;;;11.50;8.60;;;;;;;0.00;87.65;95191.81;5072292;28;20237;-78
2020/12/14 01:50:17;;;;;;;10.43;8.03;;;;;;;-0.02;87.87;95196.97;5074454;28;20204;-78
2020/12/14 01:52:46;;;;;;;10.47;7.87;;;;;;;-0.07;87.68;95196.44;5074295;28;20208;-78
2020/12/14 01:55:14;;;;;;;17.30;8.50;;;;;;;-0.06;87.77;95189.59;5074335;28;20283;-78
2020/12/14 01:57:39;;;;;;;11.93;8.60;;;;;;;0.02;87.92;95184.03;5070402;28;20271;-78
2020/12/14 02:00:10;;;;;;;12.20;8.87;;;;;;;-0.03;87.46;95177.47;5073693;28;20181;-78
2020/12/14 02:02:35;;;;;;;11.27;8.23;;;;;;;0.02;87.52;95173.84;5091925;28;20293;-78
2020/12/14 02:05:02;;;;;;;15.13;8.30;;;;;;;-0.02;87.60;95186.75;5074288;28;20220;-78
2020/12/14 02:07:28;;;;;;;12.80;8.37;;;;;;;-0.03;87.82;95191.97;5070689;28;20191;-78
2020/12/14 02:09:53;;;;;;;13.67;8.60;;;;;;;-0.10;87.89;95186.41;5068187;28;20554;-78
2020/12/14 02:12:23;;;;;;;11.50;8.03;;;;;;;-0.05;87.59;95173.38;5057597;28;20172;-78
2020/12/14 02:14:52;;;;;;;18.13;8.73;;;;;;;0.06;87.33;95167.63;5073816;28;20196;-78
2020/12/14 02:17:19;;;;;;;13.77;8.10;;;;;;;0.01;87.39;95175.56;5073918;28;20546;-78
2020/12/14 02:19:45;;;;;;;12.37;8.83;;;;;;;-0.03;87.36;95179.19;5086845;28;20176;-78
2020/12/14 02:22:10;;;;;;;14.70;9.77;;;;;;;-0.01;88.10;95167.97;5073971;28;20200;-77
2020/12/14 02:24:35;;;;;;;14.27;9.60;;;;;;;0.02;87.66;95159.34;5093571;28;20210;-78
2020/12/14 02:27:01;;;;;;;17.37;10.97;;;;;;;0.06;87.48;95157.41;5094300;28;20172;-78
2020/12/14 02:29:26;;;;;;;14.80;10.30;;;;;;;0.05;87.21;95156.59;5078894;28;20224;-78
2020/12/14 02:31:51;;;;;;;15.37;9.50;;;;;;;0.09;87.40;95157.19;5057404;28;20538;-78
2020/12/14 02:34:17;;;;;;;17.33;10.23;;;;;;;-0.03;87.58;95153.69;5091642;28;20200;-78
2020/12/14 02:36:42;;;;;;;14.27;9.60;;;;;;;0.03;87.63;95145.66;5074040;28;20225;-78
2020/12/14 02:39:07;;;;;;;15.57;9.63;;;;;;;-0.01;87.30;95150.09;5071685;28;20180;-79
2020/12/14 02:41:33;;;;;;;17.60;10.33;;;;;;;-0.03;87.68;95146.00;5090567;28;20271;-77
2020/12/14 02:43:58;;;;;;;16.10;10.40;;;;;;;-0.08;87.69;95141.22;5073641;28;20223;-78
2020/12/14 02:46:23;;;;;;;15.20;9.80;;;;;;;-0.09;87.81;95131.06;5073388;28;20173;-78
2020/12/14 02:48:49;;;;;;;14.77;10.57;;;;;;;-0.10;87.83;95144.75;5091377;28;20184;-78
2020/12/14 02:51:20;;;;;;;13.00;9.33;;;;;;;-0.10;87.69;95145.56;5054435;28;20215;-78
2020/12/14 02:53:48;;;;;;;14.70;9.93;;;;;;;-0.14;87.66;95133.91;5073612;28;20210;-78
2020/12/14 02:56:16;;;;;;;15.50;9.60;;;;;;;-0.18;88.04;95131.63;5056734;28;20180;-78
2020/12/14 02:58:43;;;;;;;16.20;9.67;;;;;;;-0.22;88.02;95131.00;5073181;28;20659;-78
2020/12/14 03:01:09;;;;;;;14.43;9.53;;;;;;;-0.17;87.40;95128.19;5052443;28;20185;-78
2020/12/14 03:03:34;;;;;;;13.23;9.70;;;;;;;-0.20;87.99;95123.25;5056174;28;20239;-78
2020/12/14 03:05:59;;;;;;;16.40;9.80;;;;;;;-0.20;87.60;95120.69;5073148;28;20488;-79
2020/12/14 03:08:25;;;;;;;14.33;9.43;;;;;;;-0.19;87.64;95122.34;5073648;28;20173;-78
2020/12/14 03:10:51;;;;;;;16.50;9.97;;;;;;;-0.25;87.80;95118.44;5073652;28;20186;-77
2020/12/14 03:13:16;;;;;;;16.87;9.77;;;;;;;-0.32;87.83;95110.31;5077794;28;20197;-78
2020/12/14 03:15:41;;;;;;;13.83;9.63;;;;;;;-0.32;87.67;95110.31;5073376;28;20184;-78
2020/12/14 03:18:07;;;;;;;15.30;10.27;;;;;;;-0.37;87.69;95117.44;5056445;28;20190;-77
2020/12/14 03:20:35;;;;;;;13.70;9.40;;;;;;;-0.36;87.79;95113.97;5091298;28;20184;-78
2020/12/14 03:23:00;;;;;;;13.43;9.40;;;;;;;-0.35;87.97;95110.53;5086209;28;20553;-78
2020/12/14 03:25:26;;;;;;;13.73;9.30;;;;;;;-0.39;87.66;95106.50;5073355;28;20194;-78
2020/12/14 03:27:51;;;;;;;14.50;9.20;;;;;;;-0.36;87.74;95103.75;5073118;28;20182;-78
2020/12/14 03:30:17;;;;;;;14.00;9.13;;;;;;;-0.49;87.90;95113.06;5073204;28;20716;-78
2020/12/14 03:32:42;;;;;;;12.97;9.27;;;;;;;-0.47;87.91;95111.25;5069904;28;20211;-78
2020/12/14 03:35:07;;;;;;;12.93;8.87;;;;;;;-0.47;87.88;95115.53;5072539;28;20286;-78
2020/12/14 03:37:33;;;;;;;15.87;9.80;;;;;;;-0.45;88.35;95113.69;5091369;28;20188;-78
2020/12/14 03:39:58;;;;;;;12.67;9.23;;;;;;;-0.45;87.69;95119.63;5072925;28;20221;-78
2020/12/14 03:42:23;;;;;;;14.00;9.37;;;;;;;-0.52;87.52;95118.38;5091156;28;20204;-78
2020/12/14 03:44:48;;;;;;;13.67;8.90;;;;;;;-0.48;87.64;95124.09;5069560;28;20558;-78
2020/12/14 03:47:14;;;;;;;13.23;9.07;;;;;;;-0.53;88.02;95115.88;5072509;28;20187;-78
2020/12/14 03:49:39;;;;;;;13.47;8.67;;;;;;;-0.55;88.05;95126.19;5072683;28;20196;-78
2020/12/14 03:52:04;;;;;;;15.73;9.00;;;;;;;-0.54;87.78;95130.38;5056322;28;20180;-78
2020/12/14 03:54:30;;;;;;;14.90;9.80;;;;;;;-0.57;87.78;95128.00;5086598;28;20219;-78
2020/12/14 03:56:58;;;;;;;14.10;9.67;;;;;;;-0.54;88.10;95127.81;5056242;28;20175;-78
2020/12/14 03:59:23;;;;;;;14.83;9.83;;;;;;;-0.57;87.76;95128.81;5069774;28;20263;-78
2020/12/14 04:01:54;;;;;;;15.43;9.23;;;;;;;-0.61;87.58;95124.84;5069284;28;20211;-78
2020/12/14 04:04:19;;;;;;;13.93;8.80;;;;;;;-0.56;87.78;95127.09;5052928;28;20199;-77
2020/12/14 04:06:44;;;;;;;14.47;9.53;;;;;;;-0.62;87.72;95127.44;5052890;28;20181;-78
2020/12/14 04:09:10;;;;;;;13.07;9.03;;;;;;;-0.59;87.63;95129.84;5048113;28;20187;-78
2020/12/14 04:11:35;;;;;;;11.90;8.53;;;;;;;-0.65;87.73;95127.63;5068170;28;20183;-78
2020/12/14 04:14:00;;;;;;;13.57;8.30;;;;;;;-0.64;87.48;95122.44;5059488;28;20679;-78
2020/12/14 04:16:26;;;;;;;11.90;8.53;;;;;;;-0.62;87.47;95132.53;5094514;28;20175;-78
2020/12/14 04:18:51;;;;;;;12.93;7.93;;;;;;;-0.70;87.49;95125.38;5090245;28;20193;-78
2020/12/14 04:21:17;;;;;;;11.83;8.03;;;;;;;-0.64;88.03;95124.16;5071490;28;20184;-78
2020/12/14 04:23:42;;;;;;;11.77;8.20;;;;;;;-0.67;87.79;95121.81;5076374;28;20238;-78
2020/12/14 04:26:08;;;;;;;12.20;7.83;;;;;;;-0.69;87.38;95127.00;5075777;28;20572;-78
2020/12/14 04:28:33;;;;;;;12.23;8.83;;;;;;;-0.68;87.90;95117.63;5075921;28;20191;-77
2020/12/14 04:31:00;;;;;;;14.53;8.50;;;;;;;-0.70;87.71;95119.44;5072541;28;20184;-78
2020/12/14 04:33:25;;;;;;;13.50;8.53;;;;;;;-0.72;87.72;95124.63;5055914;28;20193;-78
2020/12/14 04:35:50;;;;;;;11.73;8.30;;;;;;;-0.77;87.61;95128.38;5055711;28;20678;-79
2020/12/14 04:38:16;;;;;;;12.07;8.23;;;;;;;-0.74;87.74;95117.97;5055931;28;20177;-78
2020/12/14 04:40:41;;;;;;;12.83;8.67;;;;;;;-0.77;87.31;95118.16;5060542;28;20182;-78
2020/12/14 04:43:07;;;;;;;13.63;8.63;;;;;;;-0.79;87.89;95117.44;5089682;28;20568;-77
2020/12/14 04:45:33;;;;;;;12.67;8.87;;;;;;;-0.77;87.65;95123.25;5092405;28;20184;-78
2020/12/14 04:47:58;;;;;;;15.07;9.90;;;;;;;-0.80;88.02;95121.69;5075892;28;20180;-78
2020/12/14 04:50:25;;;;;;;13.53;9.03;;;;;;;-0.82;88.56;95126.06;5058957;28;20649;-78
2020/12/14 04:52:51;;;;;;;16.23;9.53;;;;;;;-0.82;88.05;95126.06;5070834;28;20211;-78
2020/12/14 04:55:21;;;;;;;16.87;10.37;;;;;;;-0.80;88.13;95129.34;5055728;28;20191;-78
2020/12/14 04:57:47;;;;;;;17.57;10.67;;;;;;;-0.82;88.69;95135.44;5055378;28;20195;-78
2020/12/14 05:00:13;;;;;;;16.27;10.53;;;;;;;-0.85;88.70;95126.25;5055244;28;20172;-78
2020/12/14 05:02:38;;;;;;;17.77;10.90;;;;;;;-0.92;89.00;95123.22;5046918;28;20686;-78
2020/12/14 05:05:04;;;;;;;14.17;9.53;;;;;;;-0.84;88.69;95137.28;5071571;28;20199;-77
2020/12/14 05:07:44;;;;;;;16.10;10.13;;;;;;;-0.82;88.64;95127.78;5038272;28;20199;-79
2020/12/14 05:10:12;;;;;;;16.10;9.77;;;;;;;-0.90;88.55;95130.78;5055296;28;20363;-78
2020/12/14 05:12:39;;;;;;;15.13;9.63;;;;;;;-0.85;88.33;95121.16;5067667;28;20184;-78
2020/12/14 05:15:31;;;;;;;15.80;10.20;;;;;;;-0.89;88.64;95130.69;5072192;28;20285;-78
2020/12/14 05:18:08;;;;;;;15.03;9.73;;;;;;;-0.87;88.59;95118.69;5075016;28;20198;-78
2020/12/14 05:20:34;;;;;;;14.50;9.23;;;;;;;-0.84;88.23;95124.53;5074041;28;20679;-78
2020/12/14 05:23:02;;;;;;;13.70;9.07;;;;;;;-0.83;88.37;95114.22;5054509;28;20208;-77
2020/12/14 05:25:28;;;;;;;13.53;9.00;;;;;;;-0.89;88.38;95117.94;5056772;28;20172;-77
2020/12/14 05:28:05;;;;;;;13.17;8.57;;;;;;;-0.78;88.16;95121.63;5075261;28;20217;-78
2020/12/14 05:30:38;;;;;;;13.03;8.97;;;;;;;-0.78;87.97;95117.34;5074397;28;20175;-78
2020/12/14 05:33:04;;;;;;;14.13;9.27;;;;;;;-0.75;88.03;95117.16;5075022;28;20168;-78
2020/12/14 05:35:34;;;;;;;12.93;8.33;;;;;;;-0.80;87.92;95119.13;5071037;28;20660;-78
2020/12/14 05:38:22;;;;;;;14.00;8.77;;;;;;;-0.79;87.96;95120.00;5058158;28;20683;-78
2020/12/14 05:40:53;;;;;;;12.03;8.80;;;;;;;-0.77;87.75;95124.09;5074552;28;20271;-78
2020/12/14 05:43:20;;;;;;;13.33;8.90;;;;;;;-0.75;87.74;95129.09;5074700;28;20581;-78
2020/12/14 05:45:46;;;;;;;15.00;8.97;;;;;;;-0.75;87.97;95121.44;5056654;28;20690;-78
2020/12/14 05:48:32;;;;;;;14.37;9.00;;;;;;;-0.73;87.75;95119.63;5091569;28;20834;-78
2020/12/14 05:50:58;;;;;;;15.57;9.27;;;;;;;-0.77;88.14;95115.63;5091228;28;20538;-78
2020/12/14 05:53:49;;;;;;;14.93;9.33;;;;;;;-0.75;87.84;95113.78;5074150;28;20196;-77
2020/12/14 05:56:16;;;;;;;12.50;8.73;;;;;;;-0.75;88.26;95108.69;5072303;28;20196;-78
2020/12/14 05:58:42;;;;;;;14.00;8.67;;;;;;;-0.73;87.71;95115.34;5066602;28;20663;-78
2020/12/14 06:01:08;;;;;;;15.23;9.30;;;;;;;-0.75;87.85;95113.78;5057648;28;20179;-78
2020/12/14 06:03:34;;;;;;;13.57;8.73;;;;;;;-0.75;87.41;95112.06;5074289;28;20208;-77
2020/12/14 06:06:13;;;;;;;12.53;8.43;;;;;;;-0.74;87.86;95113.69;5066329;28;20562;-78
2020/12/14 06:08:44;;;;;;;11.57;8.10;;;;;;;-0.72;87.63;95116.16;5069079;28;20184;-77
2020/12/14 06:11:10;;;;;;;13.10;8.23;;;;;;;-0.70;87.46;95116.91;5072085;28;20648;-77
2020/12/14 06:13:42;;;;;;;12.53;8.40;;;;;;;-0.67;87.21;95112.44;5054783;28;20193;-76
2020/12/14 06:16:08;;;;;;;13.53;9.13;;;;;;;-0.67;86.95;95119.25;5071734;28;20184;-78
2020/12/14 06:18:34;;;;;;;11.63;8.00;;;;;;;-0.64;87.13;95126.72;5066811;28;20202;-78
2020/12/14 06:21:02;;;;;;;11.87;7.40;;;;;;;-0.63;87.13;95121.53;5091016;28;20258;-78
2020/12/14 06:23:37;;;;;;;12.83;7.60;;;;;;;-0.65;86.90;95120.81;5073875;28;20232;-77
2020/12/14 06:26:04;;;;;;;12.83;8.17;;;;;;;-0.68;87.24;95127.81;5057205;28;20643;-77
2020/12/14 06:28:31;;;;;;;13.10;9.00;;;;;;;-0.71;87.11;95123.69;5069425;28;20207;-77
2020/12/14 06:30:56;;;;;;;12.83;8.77;;;;;;;-0.67;87.01;95119.25;5056724;28;20658;-77
2020/12/14 06:33:41;;;;;;;14.03;9.03;;;;;;;-0.73;87.34;95117.06;5089930;28;20198;-77
2020/12/14 06:36:20;;;;;;;14.03;8.70;;;;;;;-0.77;87.56;95115.63;5056970;28;20179;-77
2020/12/14 06:38:47;;;;;;;14.07;9.00;;;;;;;-0.77;87.48;95110.53;5070927;28;20611;-77
2020/12/14 06:41:14;;;;;;;15.00;9.63;;;;;;;-0.78;87.80;95109.69;5070430;28;20180;-78
2020/12/14 06:43:40;;;;;;;14.77;10.13;;;;;;;-0.78;87.52;95101.22;5051571;28;20207;-77
2020/12/14 06:46:05;;;;;;;14.87;9.30;;;;;;;-0.78;87.76;95103.78;5069974;28;20549;-78
2020/12/14 06:48:38;;;;;;;13.03;9.13;;;;;;;-0.72;87.57;95098.31;5055233;28;20187;-78
2020/12/14 06:51:08;;;;;;;13.37;8.53;;;;;;;-0.70;87.43;95109.25;5068783;28;20545;-77
2020/12/14 06:53:52;;;;;;;12.57;9.00;;;;;;;-0.70;87.60;95120.28;5074290;28;20199;-76
2020/12/14 06:56:40;;;;;;;15.43;9.80;;;;;;;-0.72;87.47;95108.50;5073956;28;20207;-76
2020/12/14 06:59:28;;;;;;;12.23;8.53;;;;;;;-0.69;87.51;95123.63;5054857;28;20278;-76
2020/12/14 07:02:03;;;;;;;11.20;7.77;;;;;;;-0.65;87.33;95117.44;5050737;28;20169;-77
2020/12/14 07:04:28;;;;;;;13.30;8.40;;;;;;;-0.64;87.27;95125.00;5036713;28;20199;-77
2020/12/14 07:06:57;;;;;;;11.73;7.50;;;;;;;-0.62;87.34;95127.44;5071313;28;20698;-77
2020/12/14 07:09:31;;;;;;;13.03;8.17;;;;;;;-0.43;86.75;95122.09;5052665;28;20886;-76
2020/12/14 07:12:08;;;;;;;12.07;8.23;;;;;;;-0.45;86.64;95126.44;5076077;28;20183;-77
2020/12/14 07:14:33;;;;;;;13.00;8.03;;;;;;;-0.43;86.81;95129.75;5091380;28;20202;-76
2020/12/14 07:17:01;;;;;;;12.37;7.57;;;;;;;-0.31;86.45;95134.09;5091679;28;20179;-77
2020/12/14 07:19:36;;;;;;;10.47;7.03;;;;;;;-0.26;86.75;95131.28;5073437;28;20766;-76
2020/12/14 07:22:02;;;;;;;12.77;7.70;;;;;;;-0.20;86.29;95136.00;5083600;28;20204;-78
2020/12/14 07:24:34;;;;;;;11.10;7.30;;;;;;;-0.11;85.91;95130.34;5087797;28;20581;-78
2020/12/14 07:27:00;;;;;;;8.67;6.70;;;;;;;0.00;85.51;95138.19;5071981;28;20241;-77
2020/12/14 07:29:25;;;;;;;9.37;5.93;;;;;;;0.01;85.69;95133.91;5071632;28;20670;-79
2020/12/14 07:31:50;;;;;;;9.47;7.00;;;;;;;0.07;85.51;95136.88;5084694;28;20199;-77
2020/12/14 07:34:16;;;;;;;9.33;6.43;;;;;;;0.09;85.46;95140.19;5089807;28;20217;-77
2020/12/14 07:36:41;;;;;;;8.43;6.10;;;;;;;0.14;85.44;95139.88;5071490;28;20204;-78
2020/12/14 07:39:06;;;;;;;9.60;6.27;;;;;;;0.22;85.27;95145.34;5055600;28;20215;-77
2020/12/14 07:41:32;;;;;;;8.57;5.97;;;;;;;0.26;85.05;95157.81;5054046;28;20180;-77
2020/12/14 07:43:59;;;;;;;9.20;6.03;;;;;;;0.30;84.77;95158.44;5085771;28;20204;-77
2020/12/14 07:46:33;;;;;;;8.80;5.67;;;;;;;0.39;84.51;95157.88;5082274;28;20179;-77
2020/12/14 07:48:58;;;;;;;8.37;5.87;;;;;;;0.45;84.31;95156.69;5094703;28;20184;-77
2020/12/14 07:51:25;;;;;;;6.90;4.67;;;;;;;0.49;84.39;95164.06;5093690;28;20582;-80
2020/12/14 07:53:51;;;;;;;6.47;5.10;;;;;;;0.55;84.18;95180.75;5068559;28;20196;-77
2020/12/14 07:56:17;;;;;;;7.73;5.07;;;;;;;0.67;83.65;95166.38;5075653;28;20184;-77
2020/12/14 07:58:49;;;;;;;7.13;5.37;;;;;;;0.79;83.97;95171.50;5094353;28;20184;-78
2020/12/14 08:01:18;;;;;;;7.13;5.80;;;;;;;0.95;83.28;95171.34;5070920;28;20177;-76
2020/12/14 08:03:45;;;;;;;7.63;5.37;;;;;;;0.94;83.38;95168.91;5056852;28;20217;-77
2020/12/14 08:06:18;;;;;;;7.67;6.10;;;;;;;1.00;83.18;95168.50;5059374;28;20183;-78
2020/12/14 08:08:48;;;;;;;8.13;5.30;;;;;;;1.08;83.19;95166.28;5083302;28;20177;-77
2020/12/14 08:11:15;;;;;;;7.10;5.03;;;;;;;1.07;82.96;95167.22;5073055;28;20181;-77
2020/12/14 08:13:43;;;;;;;7.10;5.40;;;;;;;1.12;83.15;95165.16;5055931;28;20702;-78
2020/12/14 08:16:09;;;;;;;7.47;5.13;;;;;;;1.18;83.08;95162.19;5075367;28;20184;-76
2020/12/14 08:18:34;;;;;;;7.40;5.07;;;;;;;1.19;82.91;95163.84;5075939;28;20188;-78
2020/12/14 08:21:00;;;;;;;8.33;5.37;;;;;;;1.33;82.54;95148.41;5076114;28;20187;-78
2020/12/14 08:23:30;;;;;;;8.17;5.30;;;;;;;1.34;82.84;95162.03;5089389;28;20208;-78
2020/12/14 08:25:55;;;;;;;7.17;5.67;;;;;;;1.36;82.45;95162.75;5056305;28;20554;-77
2020/12/14 08:28:31;;;;;;;6.30;4.97;;;;;;;1.46;82.06;95165.50;5079675;28;20176;-78
2020/12/14 08:30:58;;;;;;;9.40;5.73;;;;;;;1.50;82.50;95164.38;5075147;28;20172;-78
2020/12/14 08:33:23;;;;;;;7.70;5.33;;;;;;;1.59;81.63;95162.03;5092625;28;20188;-78
2020/12/14 08:35:53;;;;;;;6.43;5.10;;;;;;;1.70;81.12;95166.44;5075680;28;20179;-77
2020/12/14 08:38:20;;;;;;;7.27;5.57;;;;;;;1.80;81.35;95164.06;5070046;28;20255;-77
2020/12/14 08:41:03;;;;;;;8.50;5.90;;;;;;;1.93;81.08;95169.97;5055891;28;20180;-78
2020/12/14 08:43:30;;;;;;;7.80;5.93;;;;;;;2.01;80.88;95165.16;5066964;28;20223;-77
2020/12/14 08:46:01;;;;;;;6.53;5.23;;;;;;;2.15;80.51;95180.41;5093783;28;20177;-78
2020/12/14 08:48:28;;;;;;;7.90;6.07;;;;;;;2.30;80.70;95172.56;5075327;28;20184;-79
2020/12/14 08:51:13;;;;;;;6.23;4.97;;;;;;;2.44;79.67;95170.69;5074827;28;20657;-78
2020/12/14 08:53:44;;;;;;;7.93;4.87;;;;;;;2.55;79.80;95177.63;5074807;28;20188;-78
2020/12/14 08:56:12;;;;;;;7.10;4.83;;;;;;;2.73;78.89;95184.00;5091488;28;20172;-78
2020/12/14 08:58:55;;;;;;;7.03;5.37;;;;;;;2.78;78.67;95184.50;5075465;28;20593;-78
2020/12/14 09:01:30;;;;;;;5.83;4.97;;;;;;;2.97;78.51;95194.28;5060034;28;20185;-78
2020/12/14 09:04:00;;;;;;;8.53;4.90;;;;;;;3.07;78.45;95189.28;5087763;28;20200;-77
2020/12/14 09:06:34;;;;;;;6.30;4.87;;;;;;;3.06;77.83;95191.03;5077275;28;20185;-79
2020/12/14 09:09:01;;;;;;;5.27;4.17;;;;;;;3.18;78.13;95193.66;5082639;28;20176;-77
2020/12/14 09:11:28;;;;;;;5.43;4.27;;;;;;;3.25;78.38;95203.34;5069636;28;20191;-78
2020/12/14 09:13:55;;;;;;;6.47;4.87;;;;;;;3.38;78.37;95205.88;5055877;28;20189;-78
2020/12/14 09:16:20;;;;;;;5.87;4.50;;;;;;;3.35;78.55;95209.44;5080710;28;20291;-79
2020/12/14 09:18:46;;;;;;;7.33;4.70;;;;;;;3.34;79.08;95212.13;5054859;28;20281;-79
2020/12/14 09:21:11;;;;;;;10.77;5.50;;;;;;;3.37;79.07;95211.94;5070536;28;20185;-78
2020/12/14 09:23:37;;;;;;;6.33;4.47;;;;;;;3.38;78.68;95206.69;5071072;28;20201;-79
2020/12/14 09:26:02;;;;;;;4.83;4.23;;;;;;;3.34;79.02;95212.94;5057762;28;20173;-77
2020/12/14 09:28:28;;;;;;;4.63;4.13;;;;;;;3.33;79.31;95215.63;5074412;28;20186;-77
2020/12/14 09:30:53;;;;;;;6.13;4.50;;;;;;;3.37;79.15;95211.94;5074304;28;20212;-77
2020/12/14 09:33:19;;;;;;;5.73;4.70;;;;;;;3.31;78.97;95212.38;5057984;28;20205;-78
2020/12/14 09:35:44;;;;;;;7.03;4.83;;;;;;;3.31;79.93;95215.75;5091661;28;20188;-79
2020/12/14 09:38:09;;;;;;;7.40;4.47;;;;;;;3.43;79.20;95221.72;5091355;28;20590;-79
2020/12/14 09:40:34;;;;;;;5.60;4.57;;;;;;;3.51;79.05;95219.41;5085464;28;20180;-79
2020/12/14 09:43:00;;;;;;;5.63;4.37;;;;;;;3.56;78.89;95219.91;5072880;28;20233;-80
2020/12/14 09:45:25;;;;;;;7.23;4.80;;;;;;;3.70;78.73;95208.59;5066906;28;20204;-79
2020/12/14 09:47:50;;;;;;;5.40;4.80;;;;;;;3.69;78.75;95207.78;5076467;28;20709;-80
2020/12/14 09:50:16;;;;;;;6.07;5.07;;;;;;;3.76;78.83;95213.28;5076554;28;20205;-81
2020/12/14 09:52:41;;;;;;;6.87;5.27;;;;;;;3.98;77.97;95213.34;5075236;28;20177;-76
2020/12/14 09:55:06;;;;;;;4.83;4.27;;;;;;;4.08;77.92;95215.22;5075644;28;20240;-78
2020/12/14 09:57:32;;;;;;;6.17;5.10;;;;;;;4.17;77.99;95211.94;5075084;28;20554;-79
2020/12/14 09:59:57;;;;;;;6.53;4.60;;;;;;;4.26;77.75;95216.38;5058551;28;20199;-77
2020/12/14 10:02:22;;;;;;;8.10;5.87;;;;;;;4.23;77.36;95206.31;5093362;28;20275;-77
2020/12/14 10:04:48;;;;;;;7.13;5.10;;;;;;;4.35;77.50;95202.81;5078956;28;20269;-78
2020/12/14 10:07:14;;;;;;;8.30;5.33;;;;;;;4.44;78.01;95214.16;5071757;28;20668;-77
2020/12/14 10:09:39;;;;;;;6.70;5.10;;;;;;;4.47;78.08;95201.84;5092016;28;20256;-77
2020/12/14 10:12:05;;;;;;;8.23;6.73;;;;;;;4.46;78.16;95205.38;5091796;28;20196;-78
2020/12/14 10:14:30;;;;;;;9.17;6.90;;;;;;;4.53;79.09;95200.56;5073749;28;20292;-78
2020/12/14 10:16:56;;;;;;;9.00;6.10;;;;;;;4.64;77.73;95215.97;5088993;28;20563;-77
2020/12/14 10:19:21;;;;;;;7.57;6.10;;;;;;;4.46;77.42;95205.38;5090908;28;20184;-77
2020/12/14 10:21:47;;;;;;;5.03;4.40;;;;;;;4.63;77.73;95206.63;5091770;28;20595;-78
2020/12/14 10:24:12;;;;;;;8.43;5.47;;;;;;;4.56;77.46;95215.75;5091140;28;20200;-78
2020/12/14 10:26:38;;;;;;;7.17;5.90;;;;;;;4.59;77.46;95204.41;5070624;28;20180;-77
2020/12/14 10:29:04;;;;;;;7.43;5.47;;;;;;;4.53;77.74;95206.53;5073358;28;20204;-77
2020/12/14 10:31:29;;;;;;;7.27;5.10;;;;;;;4.55;78.31;95206.41;5056744;28;20195;-77
2020/12/14 10:33:57;;;;;;;5.60;4.90;;;;;;;4.63;77.53;95205.81;5056883;28;20200;-78
2020/12/14 10:36:22;;;;;;;5.20;4.70;;;;;;;4.68;77.73;95204.53;5053022;28;20279;-77
2020/12/14 10:38:47;;;;;;;6.40;4.93;;;;;;;4.89;77.09;95194.31;5090300;28;20403;-77
2020/12/14 10:41:16;;;;;;;6.77;5.07;;;;;;;4.88;77.47;95202.16;5073538;28;20637;-78
2020/12/14 10:43:41;;;;;;;6.23;5.07;;;;;;;4.99;77.48;95190.06;5071440;28;20583;-77
2020/12/14 10:46:06;;;;;;;6.57;4.90;;;;;;;5.06;76.89;95190.38;5056740;28;20184;-77
2020/12/14 10:48:31;;;;;;;5.87;4.30;;;;;;;5.09;76.75;95190.13;5087295;28;20230;-77
2020/12/14 10:50:57;;;;;;;6.97;4.37;;;;;;;5.11;77.14;95188.25;5057677;28;20174;-77
2020/12/14 10:53:22;;;;;;;4.97;4.00;;;;;;;5.26;76.38;95176.72;5049486;28;20339;-77
2020/12/14 10:55:47;;;;;;;4.30;3.70;;;;;;;5.30;76.06;95175.56;5056198;28;20221;-77
2020/12/14 10:58:13;;;;;;;4.60;4.10;;;;;;;5.34;76.77;95176.09;5088699;28;20231;-77
2020/12/14 11:00:38;;;;;;;4.17;3.40;;;;;;;5.34;76.61;95184.66;5065965;28;20256;-78
2020/12/14 11:03:03;;;;;;;5.50;3.73;;;;;;;5.35;76.32;95182.88;5060347;28;20206;-77
2020/12/14 11:05:29;;;;;;;4.27;3.77;;;;;;;5.47;76.67;95186.22;5069428;28;20226;-77
2020/12/14 11:07:55;;;;;;;3.83;3.53;;;;;;;5.52;76.48;95178.94;5056861;28;20176;-77
2020/12/14 11:10:20;;;;;;;3.53;3.20;;;;;;;5.70;75.81;95169.69;5085566;28;20625;-77
2020/12/14 11:12:46;;;;;;;4.93;3.90;;;;;;;5.71;75.82;95170.50;5073032;28;20333;-78
2020/12/14 11:15:11;;;;;;;4.77;4.03;;;;;;;5.70;76.11;95174.84;5064599;28;20206;-77
2020/12/14 11:17:37;;;;;;;4.73;3.87;;;;;;;5.82;75.27;95167.84;5071570;28;20177;-78
2020/12/14 11:20:08;;;;;;;5.30;4.27;;;;;;;5.81;76.05;95171.38;5074400;28;20251;-78
2020/12/14 11:22:34;;;;;;;5.17;4.27;;;;;;;5.75;76.11;95172.72;5094913;28;20241;-77
2020/12/14 11:25:00;;;;;;;5.23;4.00;;;;;;;5.89;76.06;95159.47;5076991;28;20238;-77
2020/12/14 11:27:25;;;;;;;4.67;3.90;;;;;;;5.82;75.77;95160.13;5094770;28;20219;-78
2020/12/14 11:29:50;;;;;;;5.93;4.23;;;;;;;5.84;76.35;95161.66;5090365;28;20211;-77
2020/12/14 11:32:16;;;;;;;4.53;4.13;;;;;;;5.85;75.87;95152.97;5094824;28;20195;-78